createdAt,value
2019-03-31T00:00:36.883Z,14.30
2019-03-31T00:03:09.274Z,16.73
2019-03-31T00:05:41.696Z,16.37
2019-03-31T00:08:14.107Z,15.60
2019-03-31T00:10:46.498Z,15.90
2019-03-31T00:13:18.904Z,15.70
2019-03-31T00:15:51.342Z,13.70
2019-03-31T00:18:23.772Z,16.37
2019-03-31T00:20:56.151Z,17.00
2019-03-31T00:23:28.596Z,13.60
2019-03-31T00:26:01.024Z,13.13
2019-03-31T00:28:33.451Z,13.83
2019-03-31T00:31:06.456Z,15.23
2019-03-31T00:33:38.866Z,13.97
2019-03-31T00:36:11.280Z,13.97
2019-03-31T00:38:43.692Z,15.07
2019-03-31T00:41:16.070Z,13.57
2019-03-31T00:43:48.527Z,13.63
2019-03-31T00:46:20.921Z,13.93
2019-03-31T00:48:53.338Z,15.70
2019-03-31T00:51:25.778Z,15.33
2019-03-31T00:53:58.195Z,12.80
2019-03-31T00:56:30.573Z,14.87
2019-03-31T00:59:02.976Z,15.57
2019-03-31T01:01:38.865Z,13.60
2019-03-31T01:04:13.425Z,14.87
2019-03-31T01:06:47.082Z,14.97
2019-03-31T01:09:34.449Z,14.00
2019-03-31T01:12:08.886Z,16.67
2019-03-31T01:14:41.267Z,17.40
2019-03-31T01:17:14.823Z,15.73
2019-03-31T01:19:47.210Z,13.23
2019-03-31T01:22:19.587Z,17.43
2019-03-31T01:24:52.135Z,16.00
2019-03-31T01:27:25.501Z,15.00
2019-03-31T01:29:57.921Z,16.27
2019-03-31T01:32:30.592Z,15.00
2019-03-31T01:35:02.986Z,13.30
2019-03-31T01:37:35.664Z,14.87
2019-03-31T01:40:08.143Z,14.30
2019-03-31T01:42:40.636Z,12.80
2019-03-31T01:45:13.244Z,14.80
2019-03-31T01:47:45.637Z,15.07
2019-03-31T01:50:18.316Z,13.17
2019-03-31T01:52:50.717Z,15.30
2019-03-31T01:55:23.109Z,13.83
2019-03-31T01:57:55.504Z,15.10
2019-03-31T02:00:47.594Z,17.07
2019-03-31T02:03:19.994Z,19.10
2019-03-31T02:05:52.366Z,16.03
2019-03-31T02:08:24.860Z,14.30
2019-03-31T02:10:57.249Z,16.27
2019-03-31T02:13:29.686Z,14.03
2019-03-31T02:16:02.101Z,15.67
2019-03-31T02:18:34.470Z,15.33
2019-03-31T02:21:06.873Z,13.63
2019-03-31T02:23:39.269Z,14.33
2019-03-31T02:26:11.642Z,14.30
2019-03-31T02:28:44.103Z,13.70
2019-03-31T02:31:16.430Z,17.00
2019-03-31T02:33:48.845Z,16.20
2019-03-31T02:36:21.229Z,14.57
2019-03-31T02:38:53.638Z,14.43
2019-03-31T02:41:26.093Z,15.30
2019-03-31T02:43:59.690Z,12.90
2019-03-31T02:46:32.135Z,16.93
2019-03-31T02:49:04.828Z,14.73
2019-03-31T02:51:37.254Z,16.20
2019-03-31T02:54:09.966Z,14.07
2019-03-31T02:56:43.222Z,15.70
2019-03-31T02:59:17.216Z,14.07
2019-03-31T03:01:52.457Z,13.43
2019-03-31T03:04:25.941Z,14.00
2019-03-31T03:06:59.692Z,14.70
2019-03-31T03:09:33.789Z,13.80
2019-03-31T03:12:09.427Z,15.83
2019-03-31T03:14:41.806Z,15.10
2019-03-31T03:17:14.160Z,16.10
2019-03-31T03:19:46.564Z,19.17
2019-03-31T03:22:18.945Z,14.23
2019-03-31T03:24:52.710Z,15.60
2019-03-31T03:27:25.126Z,13.87
2019-03-31T03:29:57.551Z,14.70
2019-03-31T03:32:29.981Z,15.23
2019-03-31T03:35:02.413Z,13.90
2019-03-31T03:37:34.794Z,14.33
2019-03-31T03:40:07.696Z,16.33
2019-03-31T03:42:40.164Z,13.83
2019-03-31T03:45:12.547Z,13.67
2019-03-31T03:47:44.946Z,14.43
2019-03-31T03:50:17.305Z,14.43
2019-03-31T03:52:49.721Z,14.73
2019-03-31T03:55:22.096Z,17.07
2019-03-31T03:57:54.476Z,15.10
2019-03-31T04:00:26.850Z,15.47
2019-03-31T04:03:00.310Z,16.30
2019-03-31T04:05:32.704Z,20.03
2019-03-31T04:08:05.092Z,12.80
2019-03-31T04:11:20.819Z,16.07
2019-03-31T04:13:50.592Z,12.37
2019-03-31T04:16:22.956Z,14.13
2019-03-31T04:18:55.481Z,13.87
2019-03-31T04:21:28.490Z,13.43
2019-03-31T04:24:00.892Z,15.30
2019-03-31T04:26:34.822Z,14.47
2019-03-31T04:29:07.267Z,14.07
2019-03-31T04:31:39.646Z,14.83
2019-03-31T04:34:12.045Z,15.13
2019-03-31T04:36:44.443Z,16.27
2019-03-31T04:39:16.838Z,17.63
2019-03-31T04:41:49.232Z,13.80
2019-03-31T04:44:21.666Z,15.80
2019-03-31T04:46:54.033Z,18.27
2019-03-31T04:49:26.431Z,14.53
2019-03-31T04:51:58.829Z,14.73
2019-03-31T04:54:31.194Z,13.80
2019-03-31T04:57:04.588Z,17.90
2019-03-31T04:59:37.166Z,14.80
2019-03-31T05:02:10.647Z,16.90
2019-03-31T05:04:43.029Z,16.13
2019-03-31T05:07:16.499Z,13.97
2019-03-31T05:09:48.887Z,13.63
2019-03-31T05:12:21.313Z,14.37
2019-03-31T05:14:53.682Z,17.10
2019-03-31T05:17:26.046Z,16.10
2019-03-31T05:19:58.454Z,16.57
2019-03-31T05:22:30.847Z,15.57
2019-03-31T05:25:03.306Z,16.37
2019-03-31T05:27:35.689Z,17.77
2019-03-31T05:30:08.490Z,14.53
2019-03-31T05:32:40.892Z,13.90
2019-03-31T05:35:13.475Z,17.13
2019-03-31T05:37:51.113Z,15.73
2019-03-31T05:40:20.047Z,16.50
2019-03-31T05:42:52.435Z,13.63
2019-03-31T05:45:25.903Z,18.33
2019-03-31T05:47:58.330Z,16.40
2019-03-31T05:50:30.720Z,15.67
2019-03-31T05:53:03.105Z,16.50
2019-03-31T05:55:35.466Z,15.53
2019-03-31T05:58:07.853Z,17.30
2019-03-31T06:00:44.599Z,22.40
2019-03-31T06:03:17.032Z,23.67
2019-03-31T06:05:49.424Z,22.20
2019-03-31T06:08:22.812Z,19.23
2019-03-31T06:10:55.200Z,15.00
2019-03-31T06:13:27.589Z,18.30
2019-03-31T06:15:59.967Z,15.97
2019-03-31T06:18:33.450Z,20.73
2019-03-31T06:21:05.827Z,16.87
2019-03-31T06:23:38.300Z,18.93
2019-03-31T06:26:10.759Z,16.53
2019-03-31T06:28:43.207Z,19.80
2019-03-31T06:31:15.622Z,22.70
2019-03-31T06:33:48.105Z,19.20
2019-03-31T06:36:20.480Z,19.47
2019-03-31T06:38:53.095Z,18.40
2019-03-31T06:41:25.510Z,19.40
2019-03-31T06:43:57.913Z,19.60
2019-03-31T06:46:30.485Z,20.17
2019-03-31T06:49:02.939Z,22.00
2019-03-31T06:51:35.323Z,21.70
2019-03-31T06:54:07.746Z,24.57
2019-03-31T06:56:40.179Z,21.13
2019-03-31T06:59:13.840Z,20.63
2019-03-31T07:01:46.247Z,17.30
2019-03-31T07:04:18.665Z,16.60
2019-03-31T07:06:51.064Z,17.03
2019-03-31T07:09:23.525Z,16.27
2019-03-31T07:11:55.950Z,16.33
2019-03-31T07:14:28.397Z,18.50
2019-03-31T07:17:00.817Z,28.87
2019-03-31T07:19:33.225Z,30.93
2019-03-31T07:22:05.682Z,16.07
2019-03-31T07:24:38.157Z,22.20
2019-03-31T07:27:10.571Z,18.37
2019-03-31T07:29:43.005Z,18.30
2019-03-31T07:32:15.441Z,18.70
2019-03-31T07:34:48.927Z,14.40
2019-03-31T07:37:21.333Z,18.50
2019-03-31T07:39:53.737Z,18.57
2019-03-31T07:42:26.496Z,18.50
2019-03-31T07:44:59.196Z,18.37
2019-03-31T07:47:31.670Z,20.03
2019-03-31T07:50:04.417Z,19.60
2019-03-31T07:52:37.080Z,19.07
2019-03-31T07:55:10.204Z,18.60
2019-03-31T07:57:42.714Z,18.27
2019-03-31T08:00:20.434Z,20.17
2019-03-31T08:02:53.926Z,21.27
2019-03-31T08:05:33.012Z,22.90
2019-03-31T08:08:00.434Z,18.20
2019-03-31T08:10:32.859Z,19.10
2019-03-31T08:13:05.438Z,20.60
2019-03-31T08:15:37.847Z,18.50
2019-03-31T08:18:10.286Z,19.40
2019-03-31T08:20:42.757Z,24.03
2019-03-31T08:23:15.206Z,23.53
2019-03-31T08:25:47.607Z,21.80
2019-03-31T08:28:20.240Z,23.90
2019-03-31T08:30:52.709Z,23.10
2019-03-31T08:33:25.150Z,22.93
2019-03-31T08:35:57.527Z,22.07
2019-03-31T08:38:29.964Z,23.20
2019-03-31T08:41:02.547Z,25.67
2019-03-31T08:43:34.967Z,28.20
2019-03-31T08:46:07.453Z,23.83
2019-03-31T08:48:41.463Z,24.17
2019-03-31T08:51:15.479Z,26.13
2019-03-31T08:53:49.801Z,26.07
2019-03-31T08:56:23.335Z,22.23
2019-03-31T08:58:55.762Z,26.20
2019-03-31T09:01:28.207Z,24.73
2019-03-31T09:04:00.906Z,24.63
2019-03-31T09:06:33.372Z,25.90
2019-03-31T09:09:08.338Z,27.43
2019-03-31T09:11:40.804Z,26.77
2019-03-31T09:14:13.355Z,25.70
2019-03-31T09:16:45.805Z,25.57
2019-03-31T09:19:18.261Z,24.63
2019-03-31T09:21:51.907Z,24.73
2019-03-31T09:24:24.361Z,24.10
2019-03-31T09:26:56.784Z,28.90
2019-03-31T09:29:29.193Z,25.80
2019-03-31T09:32:01.628Z,23.20
2019-03-31T09:34:34.051Z,23.60
2019-03-31T09:37:06.520Z,24.67
2019-03-31T09:39:38.963Z,22.87
2019-03-31T09:42:11.412Z,25.00
2019-03-31T09:44:43.854Z,23.63
2019-03-31T09:47:16.298Z,26.10
2019-03-31T09:49:48.719Z,22.83
2019-03-31T09:52:21.145Z,26.10
2019-03-31T09:54:53.532Z,24.50
2019-03-31T09:57:25.956Z,23.37
2019-03-31T09:59:58.420Z,25.43
2019-03-31T10:02:30.889Z,22.93
2019-03-31T10:05:03.360Z,26.10
2019-03-31T10:07:36.778Z,22.58
2019-03-31T10:10:13.940Z,22.37
2019-03-31T10:12:46.458Z,23.93
2019-03-31T10:15:19.181Z,23.75
2019-03-31T10:17:51.603Z,21.40
2019-03-31T10:20:24.093Z,22.73
2019-03-31T10:22:56.509Z,22.43
2019-03-31T10:25:28.928Z,23.57
2019-03-31T10:28:01.368Z,22.43
2019-03-31T10:30:36.744Z,23.70
2019-03-31T10:33:09.701Z,20.97
2019-03-31T10:35:42.140Z,22.57
2019-03-31T10:38:15.832Z,21.70
2019-03-31T10:40:48.277Z,20.67
2019-03-31T10:43:20.642Z,21.23
2019-03-31T10:45:53.382Z,20.50
2019-03-31T10:48:25.767Z,18.70
2019-03-31T10:50:58.449Z,19.20
2019-03-31T10:53:30.952Z,17.50
2019-03-31T10:56:03.436Z,17.60
2019-03-31T10:58:35.826Z,19.53
2019-03-31T11:01:08.377Z,19.50
2019-03-31T11:03:40.793Z,17.87
2019-03-31T11:06:13.258Z,16.50
2019-03-31T11:08:45.778Z,17.50
2019-03-31T11:11:28.831Z,18.30
2019-03-31T11:14:01.240Z,14.00
2019-03-31T11:16:33.780Z,23.43
2019-03-31T11:19:06.455Z,17.90
2019-03-31T11:22:14.187Z,13.33
2019-03-31T11:24:46.626Z,12.73
2019-03-31T11:27:19.291Z,10.17
2019-03-31T11:29:51.802Z,10.17
2019-03-31T11:32:24.241Z,8.37
2019-03-31T11:34:56.640Z,8.27
2019-03-31T11:37:29.059Z,12.87
2019-03-31T11:40:01.459Z,11.70
2019-03-31T11:42:33.948Z,10.17
2019-03-31T11:45:06.958Z,10.70
2019-03-31T11:47:39.370Z,10.30
2019-03-31T11:50:12.117Z,10.23
2019-03-31T11:52:44.550Z,9.93
2019-03-31T11:55:16.965Z,10.90
2019-03-31T11:57:49.387Z,10.40
2019-03-31T12:00:22.610Z,10.63
2019-03-31T12:02:55.235Z,15.33
2019-03-31T12:05:27.850Z,10.80
2019-03-31T12:08:00.231Z,11.80
2019-03-31T12:10:32.983Z,10.97
2019-03-31T12:13:05.497Z,10.20
2019-03-31T12:15:38.418Z,10.78
2019-03-31T12:18:10.908Z,12.57
2019-03-31T12:20:43.345Z,10.27
2019-03-31T12:23:15.757Z,10.80
2019-03-31T12:25:48.178Z,9.80
2019-03-31T12:28:20.596Z,9.17
2019-03-31T12:30:53.047Z,7.33
2019-03-31T12:33:25.504Z,8.53
2019-03-31T12:35:58.065Z,8.40
2019-03-31T12:38:30.569Z,7.83
2019-03-31T12:41:02.982Z,9.33
2019-03-31T12:43:35.403Z,7.90
2019-03-31T12:46:07.888Z,8.20
2019-03-31T12:48:40.310Z,7.57
2019-03-31T12:51:12.747Z,6.70
2019-03-31T12:53:45.177Z,7.27
2019-03-31T12:56:17.699Z,8.20
2019-03-31T12:58:50.144Z,7.07
2019-03-31T13:01:22.524Z,7.50
2019-03-31T13:03:54.961Z,6.53
2019-03-31T13:06:27.376Z,8.77
2019-03-31T13:08:59.815Z,6.53
2019-03-31T13:11:32.259Z,6.90
2019-03-31T13:14:04.708Z,7.07
2019-03-31T13:16:37.180Z,7.50
2019-03-31T13:19:09.596Z,7.30
2019-03-31T13:21:41.996Z,6.57
2019-03-31T13:24:14.462Z,6.87
2019-03-31T13:26:46.859Z,7.20
2019-03-31T13:29:20.396Z,7.13
2019-03-31T13:31:52.783Z,10.77
2019-03-31T13:34:25.248Z,7.33
2019-03-31T13:36:57.695Z,11.70
2019-03-31T13:39:30.167Z,8.10
2019-03-31T13:42:02.776Z,6.30
2019-03-31T13:44:35.281Z,6.70
2019-03-31T13:47:07.685Z,7.50
2019-03-31T13:49:40.070Z,7.10
2019-03-31T13:52:12.585Z,6.60
2019-03-31T13:54:45.040Z,5.70
2019-03-31T13:57:18.198Z,7.20
2019-03-31T13:59:50.974Z,6.60
2019-03-31T14:02:23.375Z,8.53
2019-03-31T14:04:55.839Z,6.40
2019-03-31T14:07:28.299Z,6.10
2019-03-31T14:10:00.935Z,7.93
2019-03-31T14:12:33.472Z,7.20
2019-03-31T14:15:18.934Z,7.90
2019-03-31T14:17:43.134Z,6.90
2019-03-31T14:20:15.904Z,6.20
2019-03-31T14:22:48.360Z,9.50
2019-03-31T14:25:20.746Z,6.90
2019-03-31T14:27:53.460Z,6.90
2019-03-31T14:30:25.919Z,6.60
2019-03-31T14:32:58.351Z,6.93
2019-03-31T14:35:30.782Z,6.07
2019-03-31T14:38:03.204Z,6.07
2019-03-31T14:40:35.647Z,5.60
2019-03-31T14:43:08.031Z,5.33
2019-03-31T14:45:41.103Z,6.50
2019-03-31T14:48:13.546Z,6.50
2019-03-31T14:50:45.996Z,7.80
2019-03-31T14:53:18.387Z,8.90
2019-03-31T14:55:50.847Z,8.33
2019-03-31T14:58:23.254Z,7.33
2019-03-31T15:00:55.953Z,6.47
2019-03-31T15:03:28.434Z,7.90
2019-03-31T15:06:00.873Z,6.20
2019-03-31T15:08:33.283Z,5.70
2019-03-31T15:11:05.736Z,6.47
2019-03-31T15:13:38.152Z,8.70
2019-03-31T15:16:10.912Z,6.90
2019-03-31T15:18:43.367Z,7.13
2019-03-31T15:21:17.240Z,6.58
2019-03-31T15:23:49.703Z,6.30
2019-03-31T15:26:22.189Z,7.10
2019-03-31T15:28:54.632Z,6.43
2019-03-31T15:31:27.064Z,7.30
2019-03-31T15:33:59.480Z,5.87
2019-03-31T15:36:32.217Z,6.63
2019-03-31T15:39:09.151Z,5.80
2019-03-31T15:41:40.756Z,6.30
2019-03-31T15:44:13.191Z,6.00
2019-03-31T15:46:45.594Z,7.07
2019-03-31T15:49:18.053Z,5.30
2019-03-31T15:51:50.500Z,5.47
2019-03-31T15:54:24.076Z,8.23
2019-03-31T15:56:56.536Z,5.80
2019-03-31T15:59:28.925Z,6.53
2019-03-31T16:02:01.534Z,9.53
2019-03-31T16:04:34.083Z,6.43
2019-03-31T16:07:06.460Z,6.63
2019-03-31T16:09:38.065Z,5.37
2019-03-31T16:12:09.889Z,6.40
2019-03-31T16:14:41.510Z,6.97
2019-03-31T16:17:13.400Z,7.42
2019-03-31T16:19:45.077Z,7.30
2019-03-31T16:22:16.744Z,6.97
2019-03-31T16:24:50.456Z,8.27
2019-03-31T16:27:22.161Z,7.40
2019-03-31T16:29:53.802Z,7.80
2019-03-31T16:32:25.434Z,8.33
2019-03-31T16:34:57.301Z,8.60
2019-03-31T16:37:28.963Z,7.10
2019-03-31T16:40:00.570Z,7.87
2019-03-31T16:42:33.351Z,9.70
2019-03-31T16:45:16.362Z,10.13
2019-03-31T16:47:48.036Z,7.90
2019-03-31T16:50:19.933Z,7.75
2019-03-31T16:52:52.848Z,8.40
2019-03-31T16:55:24.684Z,7.50
2019-03-31T16:57:56.338Z,7.90
2019-03-31T17:00:28.538Z,7.62
2019-03-31T17:03:00.157Z,8.13
2019-03-31T17:05:31.769Z,6.90
2019-03-31T17:08:03.381Z,9.00
2019-03-31T17:10:34.998Z,37.63
2019-03-31T17:13:07.708Z,42.43
2019-03-31T17:15:39.380Z,9.00
2019-03-31T17:18:11.069Z,8.87
2019-03-31T17:20:42.703Z,7.53
2019-03-31T17:23:14.302Z,6.80
2019-03-31T17:25:45.990Z,7.13
2019-03-31T17:28:17.648Z,8.37
2019-03-31T17:30:49.322Z,7.00
2019-03-31T17:33:20.978Z,6.37
2019-03-31T17:35:52.608Z,6.80
2019-03-31T17:38:24.479Z,7.90
2019-03-31T17:40:56.091Z,10.70
2019-03-31T17:43:27.810Z,7.13
2019-03-31T17:45:59.429Z,8.57
2019-03-31T17:48:31.046Z,7.90
2019-03-31T17:51:02.741Z,8.53
2019-03-31T17:53:34.372Z,8.43
2019-03-31T17:56:05.987Z,7.93
2019-03-31T17:58:37.607Z,7.13
2019-03-31T18:01:09.524Z,7.07
2019-03-31T18:03:41.126Z,7.20
2019-03-31T18:06:12.760Z,7.50
2019-03-31T18:08:44.467Z,7.10
2019-03-31T18:11:16.159Z,6.37
2019-03-31T18:13:47.841Z,6.63
2019-03-31T18:16:19.459Z,7.10
2019-03-31T18:18:51.106Z,16.07
2019-03-31T18:21:22.719Z,9.40
2019-03-31T18:23:54.504Z,10.73
2019-03-31T18:26:26.120Z,9.33
2019-03-31T18:28:57.741Z,11.60
2019-03-31T18:31:30.404Z,10.43
2019-03-31T18:34:04.557Z,9.80
2019-03-31T18:36:37.237Z,10.77
2019-03-31T18:39:09.036Z,16.97
2019-03-31T18:41:40.962Z,12.30
2019-03-31T18:44:12.569Z,15.83
2019-03-31T18:46:44.200Z,13.73
2019-03-31T18:49:15.806Z,13.07
2019-03-31T18:51:47.456Z,16.00
2019-03-31T18:54:31.452Z,15.57
2019-03-31T18:57:32.436Z,16.77
2019-03-31T19:00:33.062Z,18.53
2019-03-31T19:03:26.345Z,16.60
2019-03-31T19:06:37.051Z,18.70
2019-03-31T19:09:43.899Z,16.13
2019-03-31T19:12:45.132Z,19.33
2019-03-31T19:15:34.295Z,19.90
2019-03-31T19:18:33.724Z,19.27
2019-03-31T19:21:17.311Z,18.43
2019-03-31T19:24:19.998Z,17.63
2019-03-31T19:27:12.114Z,17.50
2019-03-31T19:29:55.952Z,18.40
2019-03-31T19:32:39.452Z,17.57
2019-03-31T19:35:36.398Z,19.40
2019-03-31T19:38:19.923Z,22.13
2019-03-31T19:41:09.164Z,17.80
2019-03-31T19:44:02.714Z,22.33
2019-03-31T19:46:56.503Z,21.00
2019-03-31T19:49:56.135Z,20.33
2019-03-31T19:52:44.153Z,22.07
2019-03-31T19:55:27.578Z,21.10
2019-03-31T19:58:07.896Z,22.10
2019-03-31T20:00:45.414Z,20.73
2019-03-31T20:03:36.023Z,22.33
2019-03-31T20:06:31.707Z,22.03
2019-03-31T20:09:22.196Z,23.90
2019-03-31T20:12:01.649Z,24.40
2019-03-31T20:14:51.136Z,24.50
2019-03-31T20:17:37.089Z,22.87
2019-03-31T20:20:18.772Z,25.70
2019-03-31T20:22:59.023Z,25.90
2019-03-31T20:25:52.275Z,27.17
2019-03-31T20:28:48.992Z,26.87
2019-03-31T20:31:34.891Z,31.87
2019-03-31T20:34:19.604Z,25.80
2019-03-31T20:37:03.275Z,28.60
2019-03-31T20:39:56.157Z,29.00
2019-03-31T20:42:36.436Z,27.83
2019-03-31T20:45:08.532Z,27.97
2019-03-31T20:47:40.191Z,33.90
2019-03-31T20:50:11.762Z,31.60
2019-03-31T20:52:43.422Z,34.30
2019-03-31T20:55:16.465Z,34.93
2019-03-31T20:57:48.591Z,31.90
2019-03-31T21:00:21.300Z,32.23
2019-03-31T21:02:53.054Z,34.80
2019-03-31T21:05:24.675Z,36.07
2019-03-31T21:07:56.343Z,35.80
2019-03-31T21:10:28.390Z,39.47
2019-03-31T21:12:59.979Z,40.10
2019-03-31T21:15:31.596Z,42.40
2019-03-31T21:18:03.261Z,42.83
2019-03-31T21:20:35.934Z,45.30
2019-03-31T21:23:07.586Z,47.90
2019-03-31T21:25:39.183Z,48.47
2019-03-31T21:28:10.832Z,45.73
2019-03-31T21:30:42.410Z,44.87
2019-03-31T21:33:14.045Z,46.67
2019-03-31T21:35:48.480Z,48.60
2019-03-31T21:38:18.954Z,49.77
2019-03-31T21:40:51.642Z,47.83
2019-03-31T21:43:23.288Z,47.93
2019-03-31T21:45:54.891Z,46.23
2019-03-31T21:48:26.521Z,42.00
2019-03-31T21:50:58.225Z,46.33
2019-03-31T21:53:29.878Z,48.40
2019-03-31T21:56:01.473Z,50.10
2019-03-31T21:58:33.199Z,49.27
2019-03-31T22:01:04.979Z,48.17
2019-03-31T22:03:36.842Z,48.07
2019-03-31T22:06:08.452Z,56.43
2019-03-31T22:08:40.067Z,50.63
2019-03-31T22:11:11.663Z,49.73
2019-03-31T22:13:43.445Z,50.00
2019-03-31T22:16:15.023Z,55.20
2019-03-31T22:18:46.627Z,53.97
2019-03-31T22:21:18.293Z,55.03
2019-03-31T22:23:57.955Z,58.27
2019-03-31T22:26:23.302Z,53.07
2019-03-31T22:28:55.039Z,54.17
2019-03-31T22:31:26.661Z,57.83
2019-03-31T22:33:58.264Z,54.47
2019-03-31T22:36:29.927Z,56.57
2019-03-31T22:39:01.489Z,60.97
2019-03-31T22:41:34.359Z,55.03
2019-03-31T22:44:05.991Z,55.47
2019-03-31T22:46:37.588Z,55.47
2019-03-31T22:49:09.164Z,54.27
2019-03-31T22:51:40.783Z,53.13
2019-03-31T22:54:12.356Z,58.60
2019-03-31T22:56:43.967Z,54.27
2019-03-31T22:59:15.552Z,58.87
2019-03-31T23:01:47.144Z,58.03
2019-03-31T23:04:19.941Z,49.60
2019-03-31T23:06:51.584Z,54.00
2019-03-31T23:09:23.173Z,56.90
2019-03-31T23:11:54.766Z,53.53
2019-03-31T23:14:26.364Z,53.27
2019-03-31T23:16:57.986Z,58.07
2019-03-31T23:19:29.585Z,57.83
2019-03-31T23:22:01.152Z,51.93
2019-03-31T23:24:32.757Z,53.07
2019-03-31T23:27:04.351Z,53.47
2019-03-31T23:29:35.945Z,55.57
2019-03-31T23:32:07.633Z,60.63
2019-03-31T23:34:39.248Z,52.20
2019-03-31T23:37:10.849Z,56.67
2019-03-31T23:39:42.411Z,51.93
2019-03-31T23:42:14.097Z,52.20
2019-03-31T23:44:45.686Z,52.00
2019-03-31T23:47:18.378Z,53.00
2019-03-31T23:49:50.014Z,48.53
2019-03-31T23:52:21.595Z,53.20
2019-03-31T23:54:53.211Z,51.00
2019-03-31T23:57:40.211Z,49.43
